Terminal Aerodrome Forecast
Issued by NWS Pocatello, ID

Home | Current Version | Previous Version | Text Only | Print | Product List | Glossary On
Versions: 1 2 3 4 5 6 7 8 9 10 11 12 13
000
FTUS45 KPIH 231120
TAFPIH
TAF
KPIH 231120Z 2312/2412 22012G20KT P6SM FEW040
     FM231700 25015G25KT P6SM VCSH BKN035 OVC050
     FM240000 34012KT P6SM VCSH SCT040
     FM240300 02007KT P6SM FEW040=

USA.gov is the U.S. government's official web portal to all federal, state and local government web resources and services.